createdAt,value
2022-08-03T00:02:31.706Z,100939.53
2022-08-03T00:05:03.884Z,100934.69
2022-08-03T00:07:35.154Z,100939.53
2022-08-03T00:10:07.319Z,100937.50
2022-08-03T00:12:40.311Z,100940.34
2022-08-03T00:15:16.426Z,100937.50
2022-08-03T00:17:52.486Z,100939.09
2022-08-03T00:20:27.405Z,100948.47
2022-08-03T00:22:59.771Z,100942.38
2022-08-03T00:25:31.068Z,100949.72
2022-08-03T00:28:01.670Z,100943.22
2022-08-03T00:30:33.944Z,100942.84
2022-08-03T00:33:06.609Z,100948.91
2022-08-03T00:35:50.964Z,100937.50
2022-08-03T00:38:23.672Z,100947.28
2022-08-03T00:40:55.819Z,100943.22
2022-08-03T00:43:28.505Z,100938.66
2022-08-03T00:45:58.284Z,100937.84
2022-08-03T00:48:33.282Z,100937.84
2022-08-03T00:51:11.401Z,100941.50
2022-08-03T00:53:45.478Z,100935.00
2022-08-03T00:56:21.497Z,100933.03
2022-08-03T00:58:59.581Z,100933.31
2022-08-03T01:01:33.909Z,100934.13
2022-08-03T01:04:09.041Z,100940.56
2022-08-03T01:06:59.009Z,100935.53
2022-08-03T01:09:54.266Z,100941.91
2022-08-03T01:13:06.168Z,100934.75
2022-08-03T01:16:17.535Z,100929.19
2022-08-03T01:19:09.900Z,100929.03
2022-08-03T01:21:42.741Z,100919.13
2022-08-03T01:24:32.124Z,100926.41
2022-08-03T01:27:09.188Z,100921.41
2022-08-03T01:29:53.981Z,100921.22
2022-08-03T01:32:59.860Z,100921.97
2022-08-03T01:35:42.530Z,100916.81
2022-08-03T01:38:27.715Z,100928.94
2022-08-03T01:41:08.844Z,100919.91
2022-08-03T01:44:26.829Z,100910.84
2022-08-03T01:46:37.447Z,100917.56
2022-08-03T01:49:18.282Z,100912.50
2022-08-03T01:52:03.332Z,100914.66
2022-08-03T01:54:46.479Z,100911.34
2022-08-03T01:57:15.760Z,100905.84
2022-08-03T01:59:52.726Z,100907.28
2022-08-03T02:02:33.179Z,100909.47
2022-08-03T02:05:11.653Z,100904.72
2022-08-03T02:07:42.629Z,100909.38
2022-08-03T02:10:17.084Z,100905.81
2022-08-03T02:13:08.496Z,100905.00
2022-08-03T02:15:39.317Z,100913.56
2022-08-03T02:18:12.181Z,100916.06
2022-08-03T02:20:48.496Z,100921.50
2022-08-03T02:23:19.402Z,100919.84
2022-08-03T02:26:01.915Z,100909.69
2022-08-03T02:28:38.428Z,100904.44
2022-08-03T02:31:23.852Z,100905.31
2022-08-03T02:33:58.938Z,100902.50
2022-08-03T02:36:40.590Z,100903.69
2022-08-03T02:39:18.247Z,100899.31
2022-08-03T02:42:02.187Z,100900.91
2022-08-03T02:44:40.384Z,100896.78
2022-08-03T02:47:13.121Z,100894.81
2022-08-03T02:49:51.011Z,100895.66
2022-08-03T02:52:29.862Z,100894.81
2022-08-03T02:55:04.955Z,100896.88
2022-08-03T02:57:36.188Z,100889.09
2022-08-03T03:00:10.185Z,100890.75
2022-08-03T03:02:44.487Z,100888.31
2022-08-03T03:05:55.377Z,100895.28
2022-08-03T03:08:26.825Z,100892.03
2022-08-03T03:11:02.270Z,100899.38
2022-08-03T03:13:39.966Z,100892.88
2022-08-03T03:16:13.494Z,100903.47
2022-08-03T03:18:47.447Z,100896.53
2022-08-03T03:21:26.827Z,100892.88
2022-08-03T03:23:55.005Z,100894.53
2022-08-03T03:26:29.613Z,100895.34
2022-08-03T03:29:04.948Z,100888.75
2022-08-03T03:31:32.842Z,100899.78
2022-08-03T03:34:08.232Z,100894.88
2022-08-03T03:36:45.258Z,100891.69
2022-08-03T03:39:18.035Z,100897.41
2022-08-03T03:41:50.642Z,100894.09
2022-08-03T03:44:27.778Z,100905.50
2022-08-03T03:47:03.664Z,100892.50
2022-08-03T03:49:38.535Z,100901.06
2022-08-03T03:52:10.460Z,100896.16
2022-08-03T03:54:47.020Z,100892.50
2022-08-03T03:57:20.810Z,100901.47
2022-08-03T03:59:55.503Z,100898.19
2022-08-03T04:02:29.145Z,100896.16
2022-08-03T04:05:31.721Z,100903.84
2022-08-03T04:08:21.937Z,100906.31
2022-08-03T04:11:04.409Z,100904.78
2022-08-03T04:13:55.081Z,100906.91
2022-08-03T04:16:28.027Z,100904.84
2022-08-03T04:19:07.515Z,100903.25
2022-08-03T04:21:41.258Z,100903.25
2022-08-03T04:24:13.767Z,100905.28
2022-08-03T04:26:49.653Z,100911.81
2022-08-03T04:29:26.134Z,100908.59
2022-08-03T04:32:05.195Z,100913.84
2022-08-03T04:34:35.978Z,100911.84
2022-08-03T04:37:12.491Z,100922.06
2022-08-03T04:39:44.785Z,100913.03
2022-08-03T04:42:19.919Z,100918.75
2022-08-03T04:45:01.106Z,100913.03
2022-08-03T04:47:36.049Z,100920.41
2022-08-03T04:50:12.965Z,100931.78
2022-08-03T04:52:47.016Z,100930.16
2022-08-03T04:55:33.313Z,100929.81
2022-08-03T04:58:12.739Z,100931.84
2022-08-03T05:00:40.628Z,100937.13
2022-08-03T05:03:23.920Z,100939.19
2022-08-03T05:06:09.412Z,100935.06
2022-08-03T05:08:47.200Z,100940.34
2022-08-03T05:11:21.642Z,100941.97
2022-08-03T05:13:51.303Z,100937.50
2022-08-03T05:16:25.866Z,100939.09
2022-08-03T05:18:59.206Z,100936.31
2022-08-03T05:21:52.029Z,100942.84
2022-08-03T05:24:21.612Z,100934.28
2022-08-03T05:26:54.563Z,100936.75
2022-08-03T05:29:24.376Z,100936.31
2022-08-03T05:31:54.248Z,100943.22
2022-08-03T05:34:24.980Z,100951.31
2022-08-03T05:36:55.846Z,100944.00
2022-08-03T05:39:30.632Z,100942.75
2022-08-03T05:42:06.715Z,100943.94
2022-08-03T05:44:34.736Z,100943.06
2022-08-03T05:47:06.367Z,100941.44
2022-08-03T05:49:39.432Z,100941.41
2022-08-03T05:52:14.648Z,100938.53
2022-08-03T05:54:56.917Z,100936.09
2022-08-03T05:57:33.241Z,100942.19
2022-08-03T06:00:13.470Z,100939.81
2022-08-03T06:02:53.932Z,100942.81
2022-08-03T06:05:28.398Z,100947.31
2022-08-03T06:08:07.333Z,100948.75
2022-08-03T06:10:38.376Z,100949.41
2022-08-03T06:13:17.360Z,100955.94
2022-08-03T06:15:59.306Z,100958.13
2022-08-03T06:18:35.847Z,100954.13
2022-08-03T06:21:15.517Z,100957.03
2022-08-03T06:23:57.341Z,100958.72
2022-08-03T06:26:46.377Z,100966.91
2022-08-03T06:29:22.587Z,100973.00
2022-08-03T06:32:00.980Z,100981.13
2022-08-03T06:34:35.576Z,100982.34
2022-08-03T06:37:17.463Z,100974.34
2022-08-03T06:39:54.267Z,100979.97
2022-08-03T06:42:34.559Z,100982.84
2022-08-03T06:45:13.422Z,100992.53
2022-08-03T06:47:46.449Z,100988.63
2022-08-03T06:50:19.055Z,100994.38
2022-08-03T06:52:53.989Z,101001.31
2022-08-03T06:55:27.162Z,100999.22
2022-08-03T06:58:03.852Z,101002.50
2022-08-03T07:00:37.651Z,100994.38
2022-08-03T07:03:16.131Z,100995.66
2022-08-03T07:05:51.003Z,100998.91
2022-08-03T07:08:33.357Z,101002.25
2022-08-03T07:11:08.234Z,101002.66
2022-08-03T07:13:41.315Z,101001.84
2022-08-03T07:16:23.881Z,100997.81
2022-08-03T07:19:02.646Z,100999.44
2022-08-03T07:21:35.686Z,101007.03
2022-08-03T07:24:14.057Z,101011.13
2022-08-03T07:26:48.353Z,101005.84
2022-08-03T07:29:22.669Z,101008.69
2022-08-03T07:31:56.796Z,101006.69
2022-08-03T07:34:35.506Z,101007.03
2022-08-03T07:37:15.140Z,101000.97
2022-08-03T07:39:49.403Z,100993.66
2022-08-03T07:42:20.621Z,100994.00
2022-08-03T07:44:51.390Z,101002.13
2022-08-03T07:47:35.204Z,101000.50
2022-08-03T07:50:10.559Z,101006.59
2022-08-03T07:52:50.319Z,101005.34
2022-08-03T07:55:24.459Z,100998.41
2022-08-03T07:58:12.494Z,101006.59
2022-08-03T08:00:46.564Z,101012.19
2022-08-03T08:03:17.796Z,101012.31
2022-08-03T08:05:48.296Z,101013.97
2022-08-03T08:08:24.092Z,101007.47
2022-08-03T08:10:59.096Z,101014.88
2022-08-03T08:13:32.419Z,101006.78
2022-08-03T08:16:06.583Z,101010.81
2022-08-03T08:18:36.635Z,101005.56
2022-08-03T08:21:07.475Z,101006.41
2022-08-03T08:23:48.044Z,101006.84
2022-08-03T08:26:27.794Z,101002.00
2022-08-03T08:28:55.845Z,101008.09
2022-08-03T08:31:35.026Z,101010.09
2022-08-03T08:34:08.021Z,101001.16
2022-08-03T08:36:42.841Z,100997.19
2022-08-03T08:39:15.670Z,100997.19
2022-08-03T08:41:56.899Z,101001.66
2022-08-03T08:44:25.835Z,101002.84
2022-08-03T08:46:56.529Z,101000.88
2022-08-03T08:49:30.226Z,100996.81
2022-08-03T08:52:01.781Z,100999.25
2022-08-03T08:54:33.408Z,101007.78
2022-08-03T08:57:33.051Z,100999.22
2022-08-03T09:00:14.589Z,100998.84
2022-08-03T09:02:43.972Z,100994.84
2022-08-03T09:05:31.615Z,100999.66
2022-08-03T09:08:15.292Z,101001.69
2022-08-03T09:10:51.743Z,100994.41
2022-08-03T09:13:23.527Z,100994.44
2022-08-03T09:16:13.218Z,101002.56
2022-08-03T09:18:54.488Z,100997.72
2022-08-03T09:21:40.365Z,100996.13
2022-08-03T09:24:31.189Z,100994.84
2022-08-03T09:27:05.570Z,100988.38
2022-08-03T09:29:43.002Z,100986.75
2022-08-03T09:32:19.570Z,100987.16
2022-08-03T09:34:55.251Z,100985.91
2022-08-03T09:38:12.498Z,100990.44
2022-08-03T09:40:37.049Z,100977.84
2022-08-03T09:46:09.689Z,100977.78
2022-08-03T09:48:39.851Z,100981.06
2022-08-03T09:51:14.235Z,100979.84
2022-08-03T09:54:05.582Z,100983.47
2022-08-03T09:56:43.482Z,100970.00
2022-08-03T09:59:27.207Z,100972.03
2022-08-03T10:02:31.075Z,100980.69
2022-08-03T10:05:01.549Z,100973.75
2022-08-03T10:07:30.874Z,100977.78
2022-08-03T10:10:30.036Z,100965.16
2022-08-03T10:12:57.740Z,100966.38
2022-08-03T10:16:21.201Z,100964.34
2022-08-03T10:18:23.474Z,100960.34
2022-08-03T10:21:01.542Z,100959.50
2022-08-03T10:23:34.052Z,100954.25
2022-08-03T10:26:07.304Z,100949.38
2022-08-03T10:28:51.015Z,100951.44
2022-08-03T10:31:28.412Z,100948.19
2022-08-03T10:34:05.103Z,100959.97
2022-08-03T10:36:39.195Z,100952.28
2022-08-03T10:39:16.237Z,100959.16
2022-08-03T10:41:50.748Z,100944.75
2022-08-03T10:44:24.831Z,100934.63
2022-08-03T10:46:57.349Z,100938.13
2022-08-03T10:49:35.122Z,100938.06
2022-08-03T10:52:13.618Z,100935.13
2022-08-03T10:55:18.948Z,100923.47
2022-08-03T10:57:58.365Z,100925.16
2022-08-03T11:00:53.600Z,100932.16
2022-08-03T11:03:21.521Z,100933.84
2022-08-03T11:05:54.626Z,100925.72
2022-08-03T11:08:28.006Z,100927.00
2022-08-03T11:11:21.713Z,100929.16
2022-08-03T11:14:11.167Z,100927.94
2022-08-03T11:16:47.992Z,100924.72
2022-08-03T11:19:27.683Z,100919.78
2022-08-03T11:22:01.940Z,100919.03
2022-08-03T11:24:47.384Z,100913.78
2022-08-03T11:27:22.745Z,100914.63
2022-08-03T11:30:27.494Z,100921.13
2022-08-03T11:33:02.757Z,100916.25
2022-08-03T11:35:36.493Z,100919.91
2022-08-03T11:38:09.799Z,100907.78
2022-08-03T11:40:56.126Z,100920.38
2022-08-03T11:43:35.328Z,100909.00
2022-08-03T11:46:08.292Z,100909.88
2022-08-03T11:48:44.151Z,100903.41
2022-08-03T11:51:29.834Z,100903.41
2022-08-03T11:54:05.628Z,100892.03
2022-08-03T11:56:53.271Z,100888.03
2022-08-03T11:59:38.802Z,100883.13
2022-08-03T12:02:09.138Z,100891.22
2022-08-03T12:05:01.498Z,100886.84
2022-08-03T12:08:03.311Z,100881.53
2022-08-03T12:10:23.796Z,100887.63
2022-08-03T12:12:59.456Z,100884.78
2022-08-03T12:15:34.177Z,100887.22
2022-08-03T12:18:15.441Z,100877.50
2022-08-03T12:20:50.031Z,100882.38
2022-08-03T12:23:21.322Z,100880.38
2022-08-03T12:25:49.534Z,100876.69
2022-08-03T12:28:36.973Z,100884.41
2022-08-03T12:31:10.310Z,100878.69
2022-08-03T12:34:01.930Z,100873.03
2022-08-03T12:36:31.839Z,100879.53
2022-08-03T12:39:03.879Z,100870.63
2022-08-03T12:41:38.708Z,100868.59
2022-08-03T12:44:08.064Z,100875.09
2022-08-03T12:46:39.427Z,100878.38
2022-08-03T12:49:11.350Z,100875.88
2022-08-03T12:52:07.214Z,100871.84
2022-08-03T12:54:36.135Z,100876.72
2022-08-03T12:57:16.052Z,100876.34
2022-08-03T12:59:53.335Z,100870.69
2022-08-03T13:02:26.590Z,100869.88
2022-08-03T13:04:57.951Z,100869.06
2022-08-03T13:07:27.203Z,100864.63
2022-08-03T13:10:04.906Z,100867.88
2022-08-03T13:12:50.949Z,100858.53
2022-08-03T13:15:22.033Z,100860.19
2022-08-03T13:17:49.978Z,100850.81
2022-08-03T13:20:18.326Z,100855.34
2022-08-03T13:22:51.845Z,100856.94
2022-08-03T13:25:20.485Z,100850.84
2022-08-03T13:28:04.478Z,100850.41
2022-08-03T13:30:36.172Z,100845.59
2022-08-03T13:33:04.234Z,100846.81
2022-08-03T13:35:31.978Z,100845.13
2022-08-03T13:37:59.880Z,100841.03
2022-08-03T13:40:30.226Z,100845.03
2022-08-03T13:42:58.885Z,100837.69
2022-08-03T13:45:30.873Z,100832.44
2022-08-03T13:48:01.240Z,100832.84
2022-08-03T13:50:30.840Z,100832.38
2022-08-03T13:53:01.614Z,100827.16
2022-08-03T13:55:31.137Z,100819.44
2022-08-03T13:58:11.502Z,100821.06
2022-08-03T14:00:40.131Z,100824.34
2022-08-03T14:03:14.166Z,100813.34
2022-08-03T14:05:46.650Z,100807.69
2022-08-03T14:08:17.400Z,100813.84
2022-08-03T14:10:45.424Z,100805.31
2022-08-03T14:13:16.758Z,100809.34
2022-08-03T14:15:50.929Z,100803.72
2022-08-03T14:18:28.983Z,100805.31
2022-08-03T14:21:09.658Z,100800.88
2022-08-03T14:23:40.081Z,100798.47
2022-08-03T14:26:09.358Z,100795.63
2022-08-03T14:28:41.685Z,100781.41
2022-08-03T14:32:10.320Z,100787.97
2022-08-03T14:34:05.766Z,100785.81
2022-08-03T14:36:39.863Z,100784.56
2022-08-03T14:39:16.184Z,100776.03
2022-08-03T14:41:47.378Z,100779.25
2022-08-03T14:44:18.795Z,100780.94
2022-08-03T14:46:46.801Z,100776.44
2022-08-03T14:50:38.415Z,100777.31
2022-08-03T14:52:13.703Z,100772.88
2022-08-03T14:54:41.922Z,100766.41
2022-08-03T14:57:09.830Z,100764.31
2022-08-03T14:59:56.752Z,100759.53
2022-08-03T15:02:30.622Z,100764.34
2022-08-03T15:05:02.399Z,100761.09
2022-08-03T15:07:35.902Z,100756.28
2022-08-03T15:10:10.174Z,100749.78
2022-08-03T15:12:43.600Z,100748.56
2022-08-03T15:15:11.816Z,100752.19
2022-08-03T15:18:00.133Z,100752.25
2022-08-03T15:20:43.255Z,100741.22
2022-08-03T15:23:16.715Z,100731.19
2022-08-03T15:26:03.957Z,100735.94
2022-08-03T15:28:38.820Z,100736.31
2022-08-03T15:31:10.205Z,100727.47
2022-08-03T15:33:40.659Z,100736.81
2022-08-03T15:36:08.560Z,100729.47
2022-08-03T15:38:41.653Z,100728.19
2022-08-03T15:41:13.633Z,100725.34
2022-08-03T15:43:47.594Z,100724.09
2022-08-03T15:46:29.741Z,100718.88
2022-08-03T15:49:07.255Z,100716.09
2022-08-03T15:51:38.412Z,100716.41
2022-08-03T15:54:11.904Z,100710.41
2022-08-03T15:56:41.835Z,100712.84
2022-08-03T15:59:15.571Z,100706.72
2022-08-03T16:01:51.192Z,100711.63
2022-08-03T16:04:22.911Z,100707.53
2022-08-03T16:06:51.413Z,100702.19
2022-08-03T16:09:23.886Z,100703.88
2022-08-03T16:12:18.624Z,100701.03
2022-08-03T16:14:53.358Z,100699.00
2022-08-03T16:17:24.618Z,100693.31
2022-08-03T16:19:58.232Z,100700.16
2022-08-03T16:22:28.647Z,100699.38
2022-08-03T16:25:01.016Z,100694.16
2022-08-03T16:27:56.922Z,100697.38
2022-08-03T16:30:23.526Z,100698.94
2022-08-03T16:32:57.720Z,100689.59
2022-08-03T16:35:25.923Z,100690.47
2022-08-03T16:37:57.612Z,100690.78
2022-08-03T16:40:26.283Z,100695.69
2022-08-03T16:42:54.197Z,100693.31
2022-08-03T16:45:22.536Z,100692.50
2022-08-03T16:48:05.962Z,100691.22
2022-08-03T16:50:35.741Z,100690.22
2022-08-03T16:53:09.333Z,100695.75
2022-08-03T16:55:48.477Z,100685.84
2022-08-03T16:58:34.206Z,100690.16
2022-08-03T17:01:21.149Z,100685.16
2022-08-03T17:04:07.332Z,100687.44
2022-08-03T17:06:45.048Z,100689.38
2022-08-03T17:09:20.664Z,100680.00
2022-08-03T17:11:52.306Z,100687.66
2022-08-03T17:14:29.332Z,100681.91
2022-08-03T17:17:07.677Z,100694.88
2022-08-03T17:19:48.964Z,100684.63
2022-08-03T17:22:38.839Z,100689.81
2022-08-03T17:25:10.744Z,100691.72
2022-08-03T17:28:50.237Z,100690.06
2022-08-03T17:31:23.058Z,100698.53
2022-08-03T17:33:58.342Z,100696.44
2022-08-03T17:39:42.173Z,100700.78
2022-08-03T17:42:29.110Z,100693.47
2022-08-03T17:47:57.486Z,100702.31
2022-08-03T17:50:40.315Z,100704.66
2022-08-03T17:53:23.962Z,100706.22
2022-08-03T17:56:36.124Z,100715.91
2022-08-03T17:58:56.010Z,100714.31
2022-08-03T18:02:02.673Z,100717.56
2022-08-03T18:04:45.829Z,100715.84
2022-08-03T18:07:40.982Z,100719.09
2022-08-03T18:10:16.645Z,100714.19
2022-08-03T18:12:55.350Z,100716.25
2022-08-03T18:15:35.719Z,100714.56
2022-08-03T18:18:11.012Z,100722.25
2022-08-03T18:20:42.050Z,100713.31
2022-08-03T18:23:25.344Z,100725.09
2022-08-03T18:26:04.822Z,100717.34
2022-08-03T18:28:55.514Z,100718.94
2022-08-03T18:31:33.047Z,100725.03
2022-08-03T18:34:33.349Z,100718.00
2022-08-03T18:37:14.555Z,100712.78
2022-08-03T18:39:49.480Z,100715.97
2022-08-03T18:42:25.632Z,100718.78
2022-08-03T18:44:56.256Z,100722.03
2022-08-03T18:48:09.696Z,100720.38
2022-08-03T18:50:48.169Z,100717.47
2022-08-03T18:54:03.962Z,100719.50
2022-08-03T18:56:31.207Z,100710.50
2022-08-03T18:59:04.876Z,100718.72
2022-08-03T19:01:59.709Z,100725.13
2022-08-03T19:05:03.948Z,100723.88
2022-08-03T19:07:41.733Z,100728.78
2022-08-03T19:10:15.735Z,100726.31
2022-08-03T19:12:57.925Z,100723.00
2022-08-03T19:15:36.588Z,100733.63
2022-08-03T19:18:11.467Z,100736.41
2022-08-03T19:23:34.253Z,100739.25
2022-08-03T19:26:03.722Z,100741.69
2022-08-03T19:28:38.335Z,100744.09
2022-08-03T19:31:06.922Z,100745.72
2022-08-03T19:33:57.289Z,100746.97
2022-08-03T19:36:40.542Z,100745.72
2022-08-03T19:39:14.845Z,100754.66
2022-08-03T19:41:51.349Z,100750.91
2022-08-03T19:44:35.994Z,100758.22
2022-08-03T19:47:17.333Z,100752.53
2022-08-03T19:50:05.695Z,100756.19
2022-08-03T19:52:46.793Z,100754.56
2022-08-03T19:55:16.415Z,100768.41
2022-08-03T19:57:50.539Z,100761.44
2022-08-03T20:00:26.290Z,100771.59
2022-08-03T20:03:02.959Z,100776.09
2022-08-03T20:05:44.956Z,100774.84
2022-08-03T20:08:22.173Z,100774.38
2022-08-03T20:10:52.427Z,100779.28
2022-08-03T20:13:30.886Z,100782.13
2022-08-03T20:16:09.567Z,100783.00
2022-08-03T20:18:42.474Z,100778.94
2022-08-03T20:21:19.269Z,100778.09
2022-08-03T20:24:01.874Z,100778.94
2022-08-03T20:26:34.944Z,100786.25
2022-08-03T20:29:10.274Z,100781.34
2022-08-03T20:31:42.525Z,100783.38
2022-08-03T20:34:17.649Z,100783.78
2022-08-03T20:36:46.148Z,100785.78
2022-08-03T20:39:14.126Z,100783.78
2022-08-03T20:41:44.889Z,100790.63
2022-08-03T20:44:15.528Z,100784.13
2022-08-03T20:46:53.300Z,100786.56
2022-08-03T20:49:28.734Z,100781.66
2022-08-03T20:52:03.335Z,100781.66
2022-08-03T20:54:38.535Z,100792.59
2022-08-03T20:57:09.534Z,100787.69
2022-08-03T21:02:35.703Z,100792.59
2022-08-03T21:05:10.291Z,100785.97
2022-08-03T21:08:05.746Z,100793.53
2022-08-03T21:10:40.770Z,100789.28
2022-08-03T21:12:55.019Z,100697.03
2022-08-03T21:13:01.993Z,100738.44
2022-08-03T21:13:12.501Z,100788.94
2022-08-03T21:13:18.253Z,100792.72
2022-08-03T21:16:07.079Z,100799.50
2022-08-03T21:18:53.552Z,100798.78
2022-08-03T21:21:23.280Z,100801.16
2022-08-03T21:23:53.497Z,100804.22
2022-08-03T21:26:27.831Z,100809.84
2022-08-03T21:28:59.867Z,100806.31
2022-08-03T21:31:30.251Z,100805.34
2022-08-03T21:34:07.653Z,100809.00
2022-08-03T21:36:38.020Z,100817.97
2022-08-03T21:39:10.762Z,100817.97
2022-08-03T21:41:45.622Z,100816.25
2022-08-03T21:44:16.358Z,100818.97
2022-08-03T21:46:52.248Z,100814.94
2022-08-03T21:50:05.215Z,100830.41
2022-08-03T21:52:20.432Z,100828.69
2022-08-03T21:54:54.308Z,100824.69
2022-08-03T21:57:26.241Z,100825.91
2022-08-03T22:00:05.643Z,100829.16
2022-08-03T22:02:45.634Z,100828.16
2022-08-03T22:05:42.713Z,100829.91
2022-08-03T22:08:17.882Z,100826.38
2022-08-03T22:10:46.880Z,100832.25
2022-08-03T22:13:43.755Z,100847.06
2022-08-03T22:16:13.483Z,100846.22
2022-08-03T22:18:44.146Z,100848.03
2022-08-03T22:21:16.796Z,100846.03
2022-08-03T22:24:05.541Z,100847.31
2022-08-03T22:27:02.892Z,100856.25
2022-08-03T22:29:35.789Z,100853.03
2022-08-03T22:32:11.130Z,100863.69
2022-08-03T22:34:44.492Z,100857.16
2022-08-03T22:37:12.498Z,100861.19
2022-08-03T22:39:43.727Z,100860.44
2022-08-03T22:42:17.378Z,100860.03
2022-08-03T22:44:46.510Z,100863.31
2022-08-03T22:47:15.295Z,100859.22
2022-08-03T22:50:32.291Z,100869.88
2022-08-03T22:52:54.164Z,100864.56
2022-08-03T22:55:27.650Z,100864.16
2022-08-03T22:57:57.624Z,100869.47
2022-08-03T23:00:27.517Z,100871.50
2022-08-03T23:02:58.955Z,100878.38
2022-08-03T23:06:01.320Z,100868.13
2022-08-03T23:08:26.627Z,100874.38
2022-08-03T23:11:05.831Z,100874.44
2022-08-03T23:13:36.466Z,100871.50
2022-08-03T23:16:08.802Z,100878.44
2022-08-03T23:18:39.864Z,100875.97
2022-08-03T23:21:15.269Z,100881.28
2022-08-03T23:23:44.680Z,100877.56
2022-08-03T23:26:18.123Z,100884.13
2022-08-03T23:28:47.016Z,100879.25
2022-08-03T23:31:23.629Z,100877.22
2022-08-03T23:34:16.736Z,100878.44
2022-08-03T23:36:51.690Z,100874.72
2022-08-03T23:39:22.966Z,100875.97
2022-08-03T23:41:58.687Z,100877.56
2022-08-03T23:44:34.636Z,100871.06
2022-08-03T23:47:13.052Z,100876.75
2022-08-03T23:49:46.197Z,100875.59
2022-08-03T23:52:35.197Z,100877.22
2022-08-03T23:55:31.133Z,100871.50
2022-08-03T23:58:13.296Z,100875.16
